Main page
METAR-TAF:

METAR-TAF

Airports :

Orange-Caritat Air Base

Orange, France

latitude: 44-08N, longitude: 004-50E, elevation: 60 m

Current weather observation

The report was made 20 minutes ago, at 20:30 UTC
Wind 22 kt from the North with gusts up to 34 kt
Temperature 3°C
Humidity 56%
Pressure 1028 hPa
Visibility 10 km or more
no clouds below 1500 m and no cumulonimbus

METAR: LFMO 212030Z AUTO 35022G34KT CAVOK 03/M05 Q1028 NOSIG

Time: 21:50 (20:50 UTC)

Forecast

The report was made 50 minutes ago, at 20:00 UTC
Forecast valid from 21 at 21 UTC to 22 at 21 UTC
Wind 25 kt from the North with gusts up to 35 kt
Visibility 10 km or more
no clouds below 1500 m and no cumulonimbus
Becoming
from 22 at 19 UTC to 22 at 21 UTC
Wind 15 kt from the North with gusts up to 25 kt

TAF: LFMO 212000Z 2121/2221 36025G35KT CAVOK TX08/2215Z TN02/2206Z BECMG 2219/2221 35015G25KT

Weather observations and forecasts of more than 4000 airports (METAR and TAF reports).

The available stations are represented by yellow and red dots on the map.

Hover mouse over dot to see the name of the station.

Then click to see weather observations and forecasts.

To change the map : click on the green buttons with a black cross to zoom in, on the green button with a dash to zoom out, or on the green arrows for adjacent maps.


METAR-TAF: